Time;durP1;ratioP1;P1;durP2;ratioP2;P2;SDS_P1;SDS_P2;PMS_P1;PMS_P2;Temp;Humidity;BMP_temperature;BMP_pressure;BME280_temperature;BME280_humidity;BME280_pressure;Samples;Min_cycle;Max_cycle;Signal;HPM_P1;HPM_P2
2021/12/20 00:01:24;;;;;;;12.65;4.57;;;1.10;99.90;;;;;;5040079;28;20343;-73
2021/12/20 00:03:52;;;;;;;11.85;3.08;;;1.10;99.90;;;;;;5039624;28;20230;-74
2021/12/20 00:06:20;;;;;;;11.25;3.00;;;1.10;99.90;;;;;;5040248;28;20213;-73
2021/12/20 00:08:48;;;;;;;14.48;3.55;;;1.10;99.90;;;;;;5039755;28;20240;-73
2021/12/20 00:11:15;;;;;;;7.15;3.92;;;1.00;99.90;;;;;;5039821;28;20609;-73
2021/12/20 00:13:45;;;;;;;13.32;2.65;;;1.10;99.90;;;;;;5039669;28;20289;-74
2021/12/20 00:16:13;;;;;;;8.98;3.97;;;1.00;99.90;;;;;;5039447;28;20850;-74
2021/12/20 00:18:42;;;;;;;11.10;2.75;;;1.00;99.90;;;;;;5040826;28;20244;-77
2021/12/20 00:21:10;;;;;;;11.68;3.20;;;1.00;99.90;;;;;;5040354;28;20457;-78
2021/12/20 00:23:38;;;;;;;4.47;2.83;;;1.00;99.90;;;;;;5041534;28;20212;-79
2021/12/20 00:26:08;;;;;;;8.10;2.80;;;1.00;99.90;;;;;;5040624;28;20224;-79
2021/12/20 00:28:36;;;;;;;10.38;3.35;;;1.00;99.90;;;;;;5042064;28;20204;-77
2021/12/20 00:31:06;;;;;;;8.63;4.13;;;1.00;99.90;;;;;;5040234;28;20212;-73
2021/12/20 00:33:34;;;;;;;6.63;2.70;;;1.00;99.90;;;;;;5039895;28;20294;-71
2021/12/20 00:36:02;;;;;;;16.58;3.88;;;0.90;99.90;;;;;;5041511;28;20249;-72
2021/12/20 00:41:15;;;;;;;14.07;3.85;;;1.00;99.90;;;;;;5040075;28;20202;-71
2021/12/20 00:43:43;;;;;;;13.23;4.22;;;0.90;99.90;;;;;;5039903;28;20212;-71
2021/12/20 00:46:13;;;;;;;9.25;2.22;;;0.80;99.90;;;;;;5039627;28;20404;-72
2021/12/20 00:48:41;;;;;;;6.50;2.50;;;0.80;99.90;;;;;;5039729;28;20312;-72
2021/12/20 00:51:08;;;;;;;6.10;3.03;;;0.80;99.90;;;;;;5039476;28;20205;-73
2021/12/20 00:53:36;;;;;;;10.80;2.90;;;0.80;99.90;;;;;;5039135;28;20208;-73
2021/12/20 00:56:05;;;;;;;8.13;2.58;;;0.80;99.90;;;;;;5039169;28;20218;-73
2021/12/20 00:58:33;;;;;;;6.13;2.75;;;0.80;99.90;;;;;;5038796;28;20198;-73
2021/12/20 01:01:01;;;;;;;7.88;2.65;;;0.80;99.90;;;;;;5039237;28;20642;-73
2021/12/20 01:03:31;;;;;;;8.75;2.65;;;0.70;99.90;;;;;;5021553;28;20297;-71
2021/12/20 01:05:59;;;;;;;17.52;3.58;;;0.70;99.90;;;;;;5038938;28;20279;-73
2021/12/20 01:08:29;;;;;;;7.55;2.55;;;0.70;99.90;;;;;;5039022;28;20233;-74
2021/12/20 01:10:57;;;;;;;6.43;2.88;;;0.60;99.90;;;;;;5038973;28;20202;-72
2021/12/20 01:13:28;;;;;;;6.30;1.90;;;0.60;99.90;;;;;;5038606;28;20569;-72
2021/12/20 01:16:00;;;;;;;4.47;2.20;;;0.60;99.90;;;;;;5038573;28;20749;-73
2021/12/20 01:18:28;;;;;;;9.50;4.03;;;0.60;99.90;;;;;;5038396;28;20201;-72
2021/12/20 01:20:57;;;;;;;7.97;2.78;;;0.60;99.90;;;;;;5038402;28;20212;-73
2021/12/20 01:23:25;;;;;;;6.10;2.55;;;0.50;99.90;;;;;;5039084;28;20300;-72
2021/12/20 01:25:53;;;;;;;8.25;3.03;;;0.60;99.90;;;;;;5038482;28;20255;-73
2021/12/20 01:28:22;;;;;;;9.05;2.60;;;0.60;99.90;;;;;;5037991;28;20201;-71
2021/12/20 01:30:51;;;;;;;8.98;2.25;;;0.50;99.90;;;;;;5038183;28;20194;-73
2021/12/20 01:33:19;;;;;;;5.78;2.50;;;0.50;99.90;;;;;;5037907;28;20201;-72
2021/12/20 01:35:47;;;;;;;5.30;2.03;;;0.50;99.90;;;;;;5038082;28;20218;-73
2021/12/20 01:38:16;;;;;;;7.82;1.90;;;0.50;99.90;;;;;;5038146;28;20298;-73
2021/12/20 01:40:44;;;;;;;4.13;1.85;;;0.40;99.90;;;;;;5038097;28;20252;-72
2021/12/20 01:43:14;;;;;;;7.80;3.00;;;0.40;99.90;;;;;;5038124;28;20201;-73
2021/12/20 01:45:43;;;;;;;7.60;2.35;;;0.40;99.90;;;;;;5037930;28;20226;-74
2021/12/20 01:48:14;;;;;;;7.93;2.90;;;0.40;99.90;;;;;;5038257;28;20286;-73
2021/12/20 01:53:31;;;;;;;12.98;2.67;;;0.30;99.90;;;;;;5037905;28;20212;-72
2021/12/20 01:55:59;;;;;;;7.18;1.77;;;0.30;99.90;;;;;;5037960;28;20214;-71
2021/12/20 01:58:29;;;;;;;5.70;1.75;;;0.30;99.90;;;;;;5037841;28;20204;-75
2021/12/20 02:03:50;;;;;;;5.18;1.80;;;0.30;99.90;;;;;;5037666;28;20208;-73
2021/12/20 02:06:24;;;;;;;5.53;1.58;;;0.30;99.90;;;;;;5038140;28;20750;-73
2021/12/20 02:08:54;;;;;;;9.15;2.22;;;0.30;99.90;;;;;;5046533;28;20201;-73
2021/12/20 02:11:22;;;;;;;11.50;2.08;;;0.30;99.90;;;;;;5059730;28;20225;-73
2021/12/20 02:13:50;;;;;;;6.93;2.63;;;0.40;99.90;;;;;;5043099;28;20715;-74
2021/12/20 02:16:19;;;;;;;4.93;2.75;;;0.40;99.90;;;;;;5041671;28;20507;-73
2021/12/20 02:18:48;;;;;;;6.00;2.20;;;0.40;99.90;;;;;;5041177;28;20455;-73
2021/12/20 02:21:18;;;;;;;8.07;2.20;;;0.30;99.90;;;;;;5041005;28;20204;-73
2021/12/20 02:23:48;;;;;;;6.47;2.40;;;0.30;99.90;;;;;;5041216;28;20205;-73
2021/12/20 02:26:18;;;;;;;5.65;2.00;;;0.30;99.90;;;;;;5040901;28;20487;-74
2021/12/20 02:28:49;;;;;;;8.32;1.80;;;0.40;99.90;;;;;;5041051;28;20198;-73
2021/12/20 02:37:02;;;;;;;4.65;1.98;;;0.40;99.90;;;;;;5040992;28;20224;-73
2021/12/20 02:39:31;;;;;;;7.57;1.95;;;0.30;99.90;;;;;;5041291;28;20240;-72
2021/12/20 02:41:59;;;;;;;3.97;2.78;;;0.30;99.90;;;;;;5040930;28;20685;-70
2021/12/20 02:44:28;;;;;;;8.23;2.67;;;0.30;99.90;;;;;;5040431;28;20292;-71
2021/12/20 02:47:14;;;;;;;6.03;2.60;;;0.20;99.90;;;;;;5040768;28;20257;-72
2021/12/20 02:49:43;;;;;;;6.95;3.15;;;0.20;99.90;;;;;;5040877;28;20216;-72
2021/12/20 02:52:13;;;;;;;10.68;2.63;;;0.20;99.90;;;;;;5040238;28;20584;-71
2021/12/20 02:54:40;;;;;;;8.90;3.17;;;0.20;99.90;;;;;;5040362;28;20300;-72
2021/12/20 02:57:08;;;;;;;3.80;2.15;;;0.20;99.90;;;;;;5040759;28;20197;-72
2021/12/20 02:59:36;;;;;;;4.82;2.28;;;0.20;99.90;;;;;;5040963;28;20205;-72
2021/12/20 03:02:06;;;;;;;7.43;2.22;;;0.20;99.90;;;;;;5040629;28;20216;-72
2021/12/20 03:04:35;;;;;;;9.73;3.28;;;0.20;99.90;;;;;;5040628;28;20207;-73
2021/12/20 03:07:06;;;;;;;6.50;2.50;;;0.10;99.90;;;;;;5040736;28;20235;-76
2021/12/20 03:09:39;;;;;;;7.80;2.38;;;0.20;99.90;;;;;;5040681;28;20296;-76
2021/12/20 03:12:10;;;;;;;8.10;2.20;;;0.20;99.90;;;;;;5040784;28;20208;-76
2021/12/20 03:14:40;;;;;;;6.15;2.70;;;0.20;99.90;;;;;;5040375;28;20202;-76
2021/12/20 03:17:10;;;;;;;3.90;2.33;;;0.20;99.90;;;;;;5041320;28;20204;-75
2021/12/20 03:19:38;;;;;;;6.80;2.22;;;0.10;99.90;;;;;;5041184;28;20201;-73
2021/12/20 03:22:07;;;;;;;5.45;1.80;;;0.20;99.90;;;;;;5041089;28;20288;-72
2021/12/20 03:24:36;;;;;;;8.05;3.63;;;0.10;99.90;;;;;;5040584;28;20216;-73
2021/12/20 03:27:05;;;;;;;5.78;2.17;;;0.10;99.90;;;;;;5040359;28;20275;-72
2021/12/20 03:29:33;;;;;;;9.40;2.42;;;0.10;99.90;;;;;;5041354;28;20259;-72
2021/12/20 03:32:00;;;;;;;6.50;2.72;;;0.10;99.90;;;;;;5041496;28;20198;-73
2021/12/20 03:34:28;;;;;;;3.33;2.08;;;0.10;99.90;;;;;;5040727;28;20206;-73
2021/12/20 03:36:56;;;;;;;3.55;2.30;;;0.00;99.90;;;;;;5041113;28;20205;-73
2021/12/20 03:39:24;;;;;;;11.10;2.30;;;0.00;99.90;;;;;;5040618;28;20206;-73
2021/12/20 03:41:53;;;;;;;7.88;2.60;;;0.00;99.90;;;;;;5040548;28;20206;-72
2021/12/20 03:44:21;;;;;;;7.28;2.30;;;0.00;99.90;;;;;;5040504;28;20302;-73
2021/12/20 03:46:49;;;;;;;7.00;2.85;;;0.00;99.90;;;;;;5040392;28;20229;-72
2021/12/20 03:49:17;;;;;;;10.52;2.20;;;0.00;99.90;;;;;;5040652;28;20829;-72
2021/12/20 03:51:45;;;;;;;2.90;1.70;;;0.00;99.90;;;;;;5040571;28;20560;-73
2021/12/20 03:54:13;;;;;;;6.00;2.65;;;0.00;99.90;;;;;;5040232;28;20621;-72
2021/12/20 03:56:41;;;;;;;11.25;2.63;;;-0.10;99.90;;;;;;5040508;28;20229;-72
2021/12/20 03:59:10;;;;;;;5.47;2.45;;;0.00;99.90;;;;;;5039949;28;20206;-72
2021/12/20 04:01:38;;;;;;;6.45;2.10;;;-0.10;99.90;;;;;;5040037;28;20201;-72
2021/12/20 04:04:06;;;;;;;6.63;2.35;;;0.00;99.90;;;;;;5040073;28;20476;-72
2021/12/20 04:06:35;;;;;;;4.38;2.25;;;0.00;99.90;;;;;;5040000;28;20578;-72
2021/12/20 04:09:03;;;;;;;12.50;2.58;;;0.00;99.90;;;;;;5039653;28;20228;-72
2021/12/20 04:11:32;;;;;;;5.63;1.90;;;0.00;99.90;;;;;;5039977;28;20209;-72
2021/12/20 04:14:01;;;;;;;4.82;2.03;;;0.00;99.90;;;;;;5039270;28;20197;-72
2021/12/20 04:16:30;;;;;;;14.27;2.75;;;0.00;99.90;;;;;;5039528;28;20229;-72
2021/12/20 04:18:58;;;;;;;12.05;2.42;;;0.00;99.90;;;;;;5039163;28;20208;-72
2021/12/20 04:21:26;;;;;;;5.00;1.85;;;0.00;99.90;;;;;;5039341;28;20241;-72
2021/12/20 04:23:54;;;;;;;2.50;2.20;;;0.00;99.90;;;;;;5039013;28;20198;-72
2021/12/20 04:26:22;;;;;;;3.15;2.10;;;0.00;99.90;;;;;;5039070;28;20225;-72
2021/12/20 04:28:50;;;;;;;8.20;2.50;;;0.00;99.90;;;;;;5039128;28;20256;-72
2021/12/20 04:31:18;;;;;;;5.53;2.20;;;0.00;99.90;;;;;;5039208;28;20202;-72
2021/12/20 04:33:47;;;;;;;6.22;2.40;;;-0.10;99.90;;;;;;5038694;28;20488;-72
2021/12/20 04:36:15;;;;;;;6.07;1.98;;;-0.10;99.90;;;;;;5038597;28;20241;-72
2021/12/20 04:38:43;;;;;;;6.38;1.90;;;-0.10;99.90;;;;;;5039220;28;20752;-72
2021/12/20 04:41:11;;;;;;;5.43;2.75;;;-0.10;99.90;;;;;;5047398;28;20213;-75
2021/12/20 04:43:39;;;;;;;3.45;2.08;;;-0.10;99.90;;;;;;5057901;28;20236;-72
2021/12/20 04:46:09;;;;;;;4.47;2.03;;;0.00;99.90;;;;;;5044693;28;20340;-73
2021/12/20 04:48:37;;;;;;;5.40;1.70;;;0.00;99.90;;;;;;5040000;28;20205;-74
2021/12/20 04:51:06;;;;;;;7.50;1.98;;;-0.10;99.90;;;;;;5050307;28;20297;-73
2021/12/20 04:53:34;;;;;;;3.55;1.50;;;-0.10;99.90;;;;;;5050735;28;20206;-68
2021/12/20 04:56:02;;;;;;;6.18;2.17;;;-0.10;99.90;;;;;;5048699;28;20379;-73
2021/12/20 04:58:29;;;;;;;3.80;1.40;;;-0.20;99.90;;;;;;5046187;28;20273;-73
2021/12/20 05:00:57;;;;;;;7.10;2.65;;;-0.30;99.90;;;;;;5045454;28;20237;-72
2021/12/20 05:03:26;;;;;;;5.30;2.30;;;-0.20;99.90;;;;;;5038512;28;20201;-73
2021/12/20 05:05:54;;;;;;;4.32;2.10;;;-0.20;99.90;;;;;;5037928;28;20719;-72
2021/12/20 05:08:32;;;;;;;5.60;1.85;;;-0.20;99.90;;;;;;5037795;28;20222;-72
2021/12/20 05:11:00;;;;;;;10.77;2.60;;;-0.20;99.90;;;;;;5038082;28;20582;-72
2021/12/20 05:13:28;;;;;;;7.80;2.95;;;-0.10;99.90;;;;;;5037745;28;20441;-72
2021/12/20 05:15:55;;;;;;;3.42;1.70;;;-0.20;99.90;;;;;;5037559;28;20256;-72
2021/12/20 05:18:23;;;;;;;7.40;2.17;;;-0.10;99.90;;;;;;5037630;28;20316;-71
2021/12/20 05:20:51;;;;;;;7.63;1.63;;;-0.10;99.90;;;;;;5037649;28;20296;-72
2021/12/20 05:23:19;;;;;;;7.55;2.05;;;-0.10;99.90;;;;;;5037368;28;20197;-72
2021/12/20 05:25:48;;;;;;;6.35;2.63;;;-0.10;99.90;;;;;;5037392;28;20368;-71
2021/12/20 05:28:16;;;;;;;3.33;1.23;;;-0.10;99.90;;;;;;5037511;28;20217;-72
2021/12/20 05:30:49;;;;;;;6.45;2.88;;;-0.10;99.90;;;;;;5037193;28;20197;-74
2021/12/20 05:33:17;;;;;;;4.00;1.95;;;-0.10;99.90;;;;;;5037843;28;20292;-72
2021/12/20 05:35:45;;;;;;;7.75;2.35;;;-0.10;99.90;;;;;;5038143;28;20643;-74
2021/12/20 05:38:14;;;;;;;3.08;1.98;;;-0.10;99.90;;;;;;5038445;28;20204;-76
2021/12/20 05:40:42;;;;;;;4.00;2.05;;;-0.10;99.90;;;;;;5037961;28;20562;-74
2021/12/20 05:43:12;;;;;;;8.23;2.60;;;-0.20;99.90;;;;;;5037303;28;20232;-73
2021/12/20 05:45:39;;;;;;;6.85;2.10;;;-0.10;99.90;;;;;;5037745;28;20224;-69
2021/12/20 05:48:07;;;;;;;7.65;2.30;;;-0.10;99.90;;;;;;5037016;28;20229;-66
2021/12/20 05:50:35;;;;;;;3.88;2.13;;;-0.10;99.90;;;;;;5037295;28;20297;-66
2021/12/20 05:53:03;;;;;;;5.53;1.80;;;-0.10;99.90;;;;;;5037476;28;20202;-67
2021/12/20 05:55:31;;;;;;;4.45;2.20;;;-0.10;99.90;;;;;;5036110;28;20450;-64
2021/12/20 05:57:59;;;;;;;5.57;1.95;;;-0.10;99.90;;;;;;5037426;28;20221;-64
2021/12/20 06:00:28;;;;;;;2.13;1.60;;;0.00;99.90;;;;;;5038182;28;20289;-65
2021/12/20 06:02:56;;;;;;;3.47;3.17;;;0.00;99.90;;;;;;5038194;28;20205;-66
2021/12/20 06:05:24;;;;;;;4.40;1.92;;;0.10;99.90;;;;;;5037972;28;20233;-65
2021/12/20 06:07:52;;;;;;;5.32;2.38;;;0.10;99.90;;;;;;5038503;28;20221;-66
2021/12/20 06:10:20;;;;;;;5.78;2.35;;;0.10;99.90;;;;;;5037919;28;20216;-66
2021/12/20 06:13:01;;;;;;;9.07;2.10;;;0.10;99.90;;;;;;5035915;28;20236;-61
2021/12/20 06:15:34;;;;;;;11.57;2.30;;;0.10;99.90;;;;;;5038412;28;20228;-65
2021/12/20 06:18:02;;;;;;;6.15;2.60;;;0.10;99.90;;;;;;5038461;28;20434;-64
2021/12/20 06:20:30;;;;;;;3.45;2.00;;;0.10;99.90;;;;;;5038550;28;20804;-64
2021/12/20 06:22:58;;;;;;;8.57;1.88;;;0.00;99.90;;;;;;5036578;28;20332;-62
2021/12/20 06:25:26;;;;;;;9.77;2.15;;;0.00;99.90;;;;;;5037427;28;20213;-64
2021/12/20 06:27:54;;;;;;;6.18;2.25;;;0.00;99.90;;;;;;5037433;28;20233;-65
2021/12/20 06:30:22;;;;;;;5.57;1.70;;;0.00;99.90;;;;;;5037249;28;20233;-64
2021/12/20 06:32:51;;;;;;;4.57;2.30;;;-0.10;99.90;;;;;;5038140;28;20206;-64
2021/12/20 06:35:33;;;;;;;4.28;2.28;;;0.00;99.90;;;;;;5037733;28;20685;-65
2021/12/20 06:38:03;;;;;;;7.20;3.22;;;-0.10;99.90;;;;;;5037147;28;20865;-65
2021/12/20 06:40:33;;;;;;;6.57;1.98;;;0.00;99.90;;;;;;5037090;28;20202;-65
2021/12/20 06:43:02;;;;;;;3.00;1.70;;;0.00;99.90;;;;;;5036818;28;20209;-65
2021/12/20 06:45:30;;;;;;;6.32;1.83;;;0.00;99.90;;;;;;5036909;28;20233;-65
2021/12/20 06:47:59;;;;;;;9.27;2.40;;;0.00;99.90;;;;;;5037362;28;20322;-65
2021/12/20 06:50:27;;;;;;;6.13;1.85;;;-0.10;99.90;;;;;;5038063;28;20191;-64
2021/12/20 06:52:55;;;;;;;6.32;2.08;;;-0.10;99.90;;;;;;5037404;28;20240;-64
2021/12/20 06:55:24;;;;;;;6.03;1.73;;;-0.10;99.90;;;;;;5037214;28;20316;-65
2021/12/20 06:57:52;;;;;;;7.68;2.05;;;-0.10;99.90;;;;;;5037427;28;20209;-66
2021/12/20 07:00:20;;;;;;;2.55;2.03;;;-0.10;99.90;;;;;;5038622;28;20202;-66
2021/12/20 07:02:48;;;;;;;2.00;1.80;;;-0.10;99.90;;;;;;5040531;28;20216;-66
2021/12/20 07:05:23;;;;;;;9.30;2.47;;;0.00;99.90;;;;;;5040493;28;20715;-67
2021/12/20 07:07:51;;;;;;;2.30;1.80;;;0.20;99.90;;;;;;5040428;28;20225;-65
2021/12/20 07:10:19;;;;;;;2.65;2.30;;;0.20;99.90;;;;;;5040526;28;20232;-65
2021/12/20 07:12:47;;;;;;;6.30;2.75;;;0.30;99.90;;;;;;5044660;28;20665;-64
2021/12/20 07:15:15;;;;;;;6.25;2.70;;;0.20;99.90;;;;;;5053792;28;20295;-65
2021/12/20 07:17:44;;;;;;;4.32;2.00;;;0.20;99.90;;;;;;5044936;28;20226;-64
2021/12/20 07:20:13;;;;;;;7.45;3.50;;;0.10;99.90;;;;;;5040600;28;20310;-68
2021/12/20 07:22:42;;;;;;;8.50;2.78;;;0.10;99.90;;;;;;5039817;28;20448;-67
2021/12/20 07:25:10;;;;;;;4.18;1.98;;;0.10;99.90;;;;;;5039548;28;20226;-65
2021/12/20 07:27:39;;;;;;;4.30;2.30;;;0.00;99.90;;;;;;5039298;28;20436;-64
2021/12/20 07:30:08;;;;;;;4.82;2.60;;;0.00;99.90;;;;;;5039531;28;20224;-63
2021/12/20 07:32:36;;;;;;;7.00;3.60;;;-0.10;99.90;;;;;;5040425;28;20201;-64
2021/12/20 07:35:04;;;;;;;5.15;2.45;;;-0.10;99.90;;;;;;5039765;28;20222;-64
2021/12/20 07:37:32;;;;;;;6.80;2.60;;;-0.10;99.90;;;;;;5039939;28;20202;-64
2021/12/20 07:40:01;;;;;;;5.75;1.98;;;-0.10;99.90;;;;;;5039745;28;20190;-64
2021/12/20 07:42:29;;;;;;;8.43;2.60;;;-0.20;99.90;;;;;;5039073;28;20208;-65
2021/12/20 07:44:57;;;;;;;7.28;2.50;;;-0.20;99.90;;;;;;5038619;28;20218;-65
2021/12/20 07:47:45;;;;;;;7.63;2.38;;;-0.20;99.90;;;;;;5038507;28;20209;-65
2021/12/20 07:50:13;;;;;;;3.53;3.22;;;-0.20;99.90;;;;;;5038728;28;20264;-63
2021/12/20 07:52:41;;;;;;;6.95;2.20;;;-0.10;99.90;;;;;;5038167;28;20440;-63
2021/12/20 07:55:11;;;;;;;2.42;1.67;;;-0.10;99.90;;;;;;5037946;28;20237;-65
2021/12/20 07:57:39;;;;;;;3.08;2.22;;;-0.10;99.90;;;;;;5038741;28;20210;-66
2021/12/20 08:00:08;;;;;;;5.75;2.95;;;-0.10;99.90;;;;;;5039552;28;20202;-62
2021/12/20 08:02:36;;;;;;;6.18;3.28;;;-0.10;99.90;;;;;;5039276;28;20628;-64
2021/12/20 08:05:05;;;;;;;4.07;2.50;;;-0.10;99.90;;;;;;5039225;28;20230;-70
2021/12/20 08:07:33;;;;;;;2.40;1.90;;;0.00;99.90;;;;;;5039096;28;20210;-64
2021/12/20 08:10:00;;;;;;;4.43;2.80;;;0.00;99.90;;;;;;5038703;28;20332;-65
2021/12/20 08:12:30;;;;;;;4.90;1.67;;;0.00;99.90;;;;;;5038564;28;20366;-64
2021/12/20 08:14:58;;;;;;;6.63;2.20;;;0.00;99.90;;;;;;5038753;28;20325;-65
2021/12/20 08:17:25;;;;;;;8.95;3.38;;;0.10;99.90;;;;;;5038874;28;20198;-64
2021/12/20 08:19:53;;;;;;;3.28;2.97;;;0.10;99.90;;;;;;5038899;28;20680;-64
2021/12/20 08:22:24;;;;;;;7.82;2.55;;;0.10;99.90;;;;;;5037983;28;20609;-64
2021/12/20 08:24:52;;;;;;;11.73;2.30;;;0.10;99.90;;;;;;5038141;28;20221;-64
2021/12/20 08:27:20;;;;;;;10.85;2.42;;;0.10;99.90;;;;;;5038657;28;20209;-64
2021/12/20 08:29:49;;;;;;;5.80;2.88;;;0.10;99.90;;;;;;5038341;28;20586;-64
2021/12/20 08:32:17;;;;;;;5.13;2.30;;;0.20;99.90;;;;;;5038370;28;20201;-64
2021/12/20 08:34:45;;;;;;;8.57;2.92;;;0.20;99.90;;;;;;5038127;28;20226;-63
2021/12/20 08:37:13;;;;;;;3.60;2.47;;;0.30;99.90;;;;;;5038701;28;20217;-64
2021/12/20 08:39:41;;;;;;;5.18;3.28;;;0.30;99.90;;;;;;5039487;28;20198;-65
2021/12/20 08:42:09;;;;;;;7.40;2.92;;;0.30;99.90;;;;;;5038679;28;20201;-64
2021/12/20 08:44:37;;;;;;;2.20;2.00;;;0.40;99.90;;;;;;5038511;28;20204;-64
2021/12/20 08:47:06;;;;;;;3.42;2.90;;;0.40;99.90;;;;;;5038390;28;20210;-64
2021/12/20 08:49:34;;;;;;;8.43;2.22;;;0.50;99.90;;;;;;5038641;28;20225;-64
2021/12/20 08:52:09;;;;;;;5.22;2.53;;;0.40;99.90;;;;;;5037950;28;20193;-64
2021/12/20 08:54:39;;;;;;;10.13;2.03;;;0.50;99.90;;;;;;5038156;28;20228;-64
2021/12/20 08:57:08;;;;;;;5.18;2.25;;;0.50;99.90;;;;;;5038396;28;20298;-65
2021/12/20 08:59:42;;;;;;;6.35;2.20;;;0.50;99.90;;;;;;5039233;28;20190;-64
2021/12/20 09:02:12;;;;;;;7.25;2.25;;;0.60;99.90;;;;;;5038564;28;20677;-65
2021/12/20 09:04:43;;;;;;;1.95;1.85;;;0.70;99.90;;;;;;5036297;28;20208;-65
2021/12/20 09:07:15;;;;;;;7.00;2.28;;;0.70;99.90;;;;;;5037946;28;20198;-65
2021/12/20 09:09:46;;;;;;;9.02;2.45;;;0.80;99.90;;;;;;5037612;28;20217;-65
2021/12/20 09:12:15;;;;;;;6.57;1.65;;;0.80;99.90;;;;;;5037525;28;20712;-64
2021/12/20 09:14:43;;;;;;;5.75;1.98;;;0.90;99.90;;;;;;5036896;28;20245;-65
2021/12/20 09:17:12;;;;;;;4.90;2.00;;;1.00;99.90;;;;;;5037524;28;20190;-65
2021/12/20 09:19:43;;;;;;;7.65;1.65;;;1.10;99.90;;;;;;5035252;28;20210;-64
2021/12/20 09:22:11;;;;;;;5.13;2.83;;;1.10;99.90;;;;;;5038664;28;20206;-65
2021/12/20 09:24:40;;;;;;;4.00;2.25;;;1.20;99.90;;;;;;5034050;28;20297;-64
2021/12/20 09:27:10;;;;;;;4.32;2.53;;;1.20;99.90;;;;;;5042377;28;20198;-66
2021/12/20 09:29:38;;;;;;;5.10;2.10;;;1.20;99.90;;;;;;5040106;28;20281;-66
2021/12/20 09:32:06;;;;;;;5.40;1.65;;;1.30;99.90;;;;;;5040413;28;20190;-66
2021/12/20 09:34:36;;;;;;;6.95;2.50;;;1.30;99.90;;;;;;5038765;28;20208;-65
2021/12/20 09:37:07;;;;;;;2.00;1.75;;;1.40;99.90;;;;;;5041691;28;20831;-65
2021/12/20 09:39:38;;;;;;;5.95;2.83;;;1.40;99.90;;;;;;5038120;28;20433;-65
2021/12/20 09:42:07;;;;;;;4.32;2.20;;;1.50;99.90;;;;;;5032742;28;20198;-66
2021/12/20 09:44:35;;;;;;;2.45;2.17;;;1.50;99.90;;;;;;5032638;28;20202;-72
2021/12/20 09:47:06;;;;;;;6.78;2.20;;;1.50;99.90;;;;;;5031510;28;20209;-71
2021/12/20 09:49:36;;;;;;;3.63;1.80;;;1.60;99.90;;;;;;5035844;28;20217;-71
2021/12/20 09:52:14;;;;;;;5.95;2.35;;;1.70;99.90;;;;;;5038184;28;20190;-72
2021/12/20 09:54:45;;;;;;;9.07;1.60;;;1.70;99.90;;;;;;5034834;28;20457;-73
2021/12/20 09:57:17;;;;;;;4.35;1.90;;;1.80;99.90;;;;;;5038146;28;20236;-70
2021/12/20 09:59:46;;;;;;;2.45;1.63;;;1.90;99.90;;;;;;5041845;28;20784;-68
2021/12/20 10:02:16;;;;;;;3.10;1.75;;;2.00;99.90;;;;;;5038755;28;20202;-68
2021/12/20 10:04:46;;;;;;;5.15;2.28;;;2.00;99.90;;;;;;5040688;28;20218;-67
2021/12/20 10:07:18;;;;;;;5.85;2.90;;;2.00;99.90;;;;;;5043159;28;20220;-69
2021/12/20 10:09:48;;;;;;;7.70;2.45;;;2.10;99.90;;;;;;5037571;28;20445;-69
2021/12/20 10:12:22;;;;;;;5.32;2.58;;;2.10;99.90;;;;;;5039862;28;20193;-69
2021/12/20 10:15:03;;;;;;;5.13;1.98;;;2.20;99.90;;;;;;5040388;28;20444;-70
2021/12/20 10:17:49;;;;;;;7.75;2.58;;;2.20;99.90;;;;;;5037722;28;20219;-69
2021/12/20 10:20:26;;;;;;;3.20;3.00;;;2.20;99.90;;;;;;5038665;28;20198;-69
2021/12/20 10:23:08;;;;;;;2.78;1.70;;;2.30;99.90;;;;;;5040019;28;20203;-69
2021/12/20 10:25:41;;;;;;;2.88;1.80;;;2.30;99.90;;;;;;5039369;28;20241;-67
2021/12/20 10:28:13;;;;;;;5.22;2.75;;;2.30;99.90;;;;;;5037632;28;20186;-68
2021/12/20 10:30:47;;;;;;;4.50;2.20;;;2.30;99.90;;;;;;5038098;28;20206;-68
2021/12/20 10:33:20;;;;;;;2.65;2.20;;;2.30;99.90;;;;;;5040294;28;20198;-65
2021/12/20 10:35:55;;;;;;;3.85;2.40;;;2.40;99.90;;;;;;5042288;28;20224;-67
2021/12/20 10:38:37;;;;;;;5.38;2.75;;;2.40;99.90;;;;;;5045379;28;20201;-66
2021/12/20 10:41:11;;;;;;;8.63;3.80;;;2.50;99.90;;;;;;5044631;28;20190;-66
2021/12/20 10:43:48;;;;;;;7.00;2.33;;;2.50;99.90;;;;;;5043208;28;20698;-67
2021/12/20 10:46:19;;;;;;;2.80;1.70;;;2.50;99.90;;;;;;5043099;28;20245;-69
2021/12/20 10:48:52;;;;;;;4.90;2.30;;;2.50;99.90;;;;;;5043625;28;20464;-68
2021/12/20 10:51:25;;;;;;;5.95;2.35;;;2.60;99.90;;;;;;5044019;28;20304;-69
2021/12/20 10:54:02;;;;;;;4.30;2.90;;;2.60;99.90;;;;;;5045519;28;20197;-72
2021/12/20 10:56:41;;;;;;;10.23;1.75;;;2.70;99.90;;;;;;5042496;28;20271;-70
2021/12/20 10:59:21;;;;;;;2.30;1.60;;;2.70;99.90;;;;;;5043490;28;20237;-69
2021/12/20 11:02:28;;;;;;;3.10;2.38;;;2.70;99.90;;;;;;5042902;28;20272;-67
2021/12/20 11:04:49;;;;;;;2.72;1.63;;;2.80;99.90;;;;;;5043274;28;20221;-70
2021/12/20 11:10:08;;;;;;;4.70;2.08;;;2.80;99.90;;;;;;5042710;28;20217;-68
2021/12/20 11:12:37;;;;;;;4.88;1.65;;;2.80;99.90;;;;;;5042585;28;20281;-69
2021/12/20 11:15:08;;;;;;;4.03;2.05;;;2.80;99.90;;;;;;5036971;28;20225;-65
2021/12/20 11:17:41;;;;;;;4.57;2.45;;;2.90;99.90;;;;;;5038448;28;20229;-63
2021/12/20 11:20:21;;;;;;;4.53;1.80;;;2.90;99.90;;;;;;5042573;28;20251;-69
2021/12/20 11:23:06;;;;;;;9.98;3.85;;;2.90;99.90;;;;;;5038472;28;20593;-68
2021/12/20 11:25:36;;;;;;;4.10;1.90;;;2.90;99.90;;;;;;5030513;28;20222;-68
2021/12/20 11:28:04;;;;;;;6.90;1.92;;;2.90;99.90;;;;;;5035686;28;20200;-69
2021/12/20 11:30:32;;;;;;;2.63;1.85;;;3.00;99.90;;;;;;5035930;28;20374;-69
2021/12/20 11:33:00;;;;;;;2.72;1.52;;;3.00;99.90;;;;;;5030883;28;20579;-68
2021/12/20 11:35:29;;;;;;;5.32;2.50;;;3.10;99.90;;;;;;5033873;28;20221;-69
2021/12/20 11:37:59;;;;;;;4.78;2.13;;;3.10;99.90;;;;;;5035559;28;20843;-67
2021/12/20 11:40:27;;;;;;;3.70;2.20;;;3.20;99.90;;;;;;5035638;28;20696;-70
2021/12/20 11:42:55;;;;;;;3.97;1.95;;;3.20;99.90;;;;;;5037239;28;20206;-69
2021/12/20 11:45:24;;;;;;;4.28;2.30;;;3.20;99.90;;;;;;5038079;28;20234;-69
2021/12/20 11:47:59;;;;;;;2.35;2.15;;;3.20;99.90;;;;;;5037828;28;20210;-69
2021/12/20 11:50:32;;;;;;;4.80;2.20;;;3.30;99.90;;;;;;5037675;28;20298;-69
2021/12/20 11:53:07;;;;;;;4.10;1.83;;;3.20;99.90;;;;;;5038215;28;20202;-63
2021/12/20 11:55:38;;;;;;;6.15;2.15;;;3.30;99.90;;;;;;5038200;28;20289;-68
2021/12/20 11:58:16;;;;;;;2.30;1.70;;;3.20;99.90;;;;;;5038339;28;20194;-69
2021/12/20 12:00:49;;;;;;;4.80;3.08;;;3.30;99.90;;;;;;5037529;28;20323;-71
2021/12/20 12:03:20;;;;;;;3.03;2.50;;;3.30;99.90;;;;;;5038770;28;20470;-72
2021/12/20 12:05:50;;;;;;;5.93;2.50;;;3.30;99.90;;;;;;5039004;28;20822;-70
2021/12/20 12:08:29;;;;;;;4.85;2.00;;;3.40;99.90;;;;;;5038976;28;20201;-71
2021/12/20 12:11:00;;;;;;;3.58;1.98;;;3.40;99.90;;;;;;5038626;28;20235;-71
2021/12/20 12:13:35;;;;;;;3.17;2.08;;;3.50;99.90;;;;;;5039326;28;20205;-70
2021/12/20 12:16:04;;;;;;;3.00;1.90;;;3.50;99.90;;;;;;5038074;28;20496;-69
2021/12/20 12:18:52;;;;;;;13.15;2.65;;;3.50;99.90;;;;;;5038753;28;20410;-72
2021/12/20 12:21:42;;;;;;;3.50;2.28;;;3.60;99.90;;;;;;5038047;28;20539;-71
2021/12/20 12:24:43;;;;;;;7.25;2.03;;;3.50;99.90;;;;;;5038172;28;20456;-71
2021/12/20 12:27:23;;;;;;;5.25;1.90;;;3.50;99.90;;;;;;5037751;28;20568;-72
2021/12/20 12:30:33;;;;;;;4.82;2.35;;;3.50;99.90;;;;;;5037702;28;20661;-71
2021/12/20 12:33:19;;;;;;;2.92;1.80;;;3.50;99.90;;;;;;5000743;28;20198;-70
2021/12/20 12:35:51;;;;;;;3.20;2.05;;;3.60;99.90;;;;;;5035813;28;20226;-71
2021/12/20 12:38:21;;;;;;;3.25;2.00;;;3.60;99.90;;;;;;5034585;28;20741;-64
2021/12/20 12:40:51;;;;;;;5.35;2.40;;;3.60;99.90;;;;;;5038910;28;20288;-71
2021/12/20 12:43:41;;;;;;;3.50;2.97;;;3.70;99.90;;;;;;5037983;28;20264;-70
2021/12/20 12:46:09;;;;;;;2.70;1.98;;;3.70;99.90;;;;;;5035542;28;20826;-70
2021/12/20 12:48:39;;;;;;;5.80;1.70;;;3.70;99.90;;;;;;5036216;28;20204;-69
2021/12/20 12:51:28;;;;;;;8.75;2.45;;;3.70;99.90;;;;;;5037055;28;20217;-72
2021/12/20 12:53:57;;;;;;;4.60;2.50;;;3.80;99.90;;;;;;5037176;28;20229;-72
2021/12/20 12:56:31;;;;;;;5.60;2.08;;;3.70;99.90;;;;;;5036853;28;20232;-67
2021/12/20 13:02:08;;;;;;;7.80;1.95;;;3.70;99.90;;;;;;5114659;27;20522;-64
2021/12/20 13:04:45;;;;;;;4.63;2.42;;;3.70;99.90;;;;;;5111965;28;20203;-63
2021/12/20 13:07:17;;;;;;;5.47;2.05;;;3.70;99.90;;;;;;5094162;28;20200;-66
2021/12/20 13:09:47;;;;;;;5.28;2.55;;;3.70;99.90;;;;;;5093507;28;20227;-69
2021/12/20 13:12:20;;;;;;;10.07;1.83;;;3.70;99.90;;;;;;5093960;27;20277;-71
2021/12/20 13:14:53;;;;;;;10.02;2.88;;;3.70;99.90;;;;;;5093325;28;20245;-68
2021/12/20 13:17:34;;;;;;;5.55;2.72;;;3.70;99.90;;;;;;5094466;28;20547;-70
2021/12/20 13:20:20;;;;;;;5.75;2.50;;;3.70;99.90;;;;;;5093909;27;20224;-69
2021/12/20 13:23:02;;;;;;;5.28;2.40;;;3.70;99.90;;;;;;5092383;28;20208;-64
2021/12/20 13:25:42;;;;;;;3.60;2.20;;;3.70;99.90;;;;;;5091736;28;20318;-70
2021/12/20 13:28:14;;;;;;;5.93;2.60;;;3.80;99.90;;;;;;5094787;28;20200;-70
2021/12/20 13:30:48;;;;;;;4.15;2.33;;;3.80;99.90;;;;;;5093717;28;20204;-70
2021/12/20 13:33:20;;;;;;;4.20;2.30;;;3.80;99.90;;;;;;5093987;28;20204;-70